createdAt,value
2019-05-16T00:00:29.062Z,102239.06
2019-05-16T00:03:09.536Z,102227.53
2019-05-16T00:05:33.836Z,102234.45
2019-05-16T00:08:32.132Z,102232.86
2019-05-16T00:10:59.777Z,102233.20
2019-05-16T00:13:28.147Z,102227.97
2019-05-16T00:15:58.552Z,102217.70
2019-05-16T00:18:28.263Z,102215.43
2019-05-16T00:23:52.270Z,102221.73
2019-05-16T00:26:29.275Z,102211.48
2019-05-16T00:29:58.113Z,102213.28
2019-05-16T00:32:52.652Z,102205.69
2019-05-16T00:35:45.426Z,102200.23
2019-05-16T01:00:45.513Z,102170.65
2019-05-16T01:03:13.431Z,102176.20
2019-05-16T01:05:41.193Z,102174.41
2019-05-16T01:08:09.277Z,102173.47
2019-05-16T01:10:39.000Z,102167.66
2019-05-16T01:13:07.988Z,102164.52
2019-05-16T01:15:37.947Z,102155.20
2019-05-16T01:18:07.861Z,102153.84
2019-05-16T01:20:34.870Z,102156.98
2019-05-16T01:23:02.600Z,102154.64
2019-05-16T01:25:30.341Z,102156.55
2019-05-16T01:27:58.394Z,102152.92
2019-05-16T01:30:28.556Z,102147.63
2019-05-16T01:33:03.928Z,102143.13
2019-05-16T01:35:31.983Z,102141.80
2019-05-16T01:37:59.706Z,102139.99
2019-05-16T01:40:28.087Z,102130.98
2019-05-16T01:42:57.880Z,102132.89
2019-05-16T01:45:27.671Z,102130.09
2019-05-16T01:47:55.199Z,102134.59
2019-05-16T01:50:23.007Z,102126.13
2019-05-16T01:52:50.816Z,102117.51
2019-05-16T01:55:18.791Z,102119.41
2019-05-16T01:57:48.123Z,102116.33
2019-05-16T02:00:23.074Z,102116.77
2019-05-16T02:02:45.623Z,102113.24
2019-05-16T02:05:13.366Z,102113.18
2019-05-16T02:07:41.215Z,102100.94
2019-05-16T02:10:24.625Z,102102.28
2019-05-16T02:12:49.047Z,102109.11
2019-05-16T02:15:18.221Z,102099.84
2019-05-16T02:17:48.532Z,102087.56
2019-05-16T02:20:17.952Z,102092.67
2019-05-16T02:22:45.536Z,102089.56
2019-05-16T02:25:13.295Z,102088.21
2019-05-16T02:27:41.240Z,102082.64
2019-05-16T02:30:12.368Z,102085.91
2019-05-16T02:32:41.663Z,102086.38
2019-05-16T02:35:11.256Z,102082.88
2019-05-16T02:37:41.743Z,102081.97
2019-05-16T02:40:15.973Z,102085.98
2019-05-16T02:42:44.116Z,102077.46
2019-05-16T02:45:11.878Z,102080.19
2019-05-16T02:47:42.422Z,102080.58
2019-05-16T02:50:12.457Z,102078.39
2019-05-16T02:52:41.402Z,102064.88
2019-05-16T02:55:11.326Z,102067.22
2019-05-16T02:57:41.104Z,102069.95
2019-05-16T03:00:07.727Z,102065.00
2019-05-16T03:02:35.484Z,102060.45
2019-05-16T03:05:03.223Z,102053.31
2019-05-16T03:07:41.100Z,102058.67
2019-05-16T03:10:01.476Z,102060.10
2019-05-16T03:12:41.130Z,102056.97
2019-05-16T03:15:10.971Z,102058.72
2019-05-16T03:17:40.306Z,102049.83
2019-05-16T03:20:10.579Z,102048.05
2019-05-16T03:22:37.301Z,102049.84
2019-05-16T03:25:05.067Z,102046.27
2019-05-16T03:27:32.788Z,102042.69
2019-05-16T03:30:01.687Z,102042.23
2019-05-16T03:32:34.003Z,102036.45
2019-05-16T03:35:05.043Z,102036.87
2019-05-16T03:37:30.776Z,102027.51
2019-05-16T03:40:00.570Z,102019.48
2019-05-16T03:42:51.841Z,102023.95
2019-05-16T03:45:31.870Z,102018.18
2019-05-16T03:48:02.726Z,102020.83
2019-05-16T03:51:11.437Z,102004.26
2019-05-16T03:53:43.691Z,102002.96
2019-05-16T03:56:40.863Z,101997.16
2019-05-16T04:05:22.969Z,101995.39
2019-05-16T04:07:53.020Z,101992.71
2019-05-16T04:10:21.517Z,101994.41
2019-05-16T04:12:51.286Z,101992.72
2019-05-16T04:15:21.499Z,101988.12
2019-05-16T04:17:51.257Z,101982.41
2019-05-16T04:20:21.242Z,101987.76
2019-05-16T04:22:51.044Z,101989.83
2019-05-16T04:25:17.449Z,101988.57
2019-05-16T04:27:45.511Z,101987.25
2019-05-16T04:30:13.298Z,101986.28
2019-05-16T04:32:42.180Z,101987.13
2019-05-16T04:35:11.276Z,101979.70
2019-05-16T04:37:42.045Z,101982.87
2019-05-16T04:40:11.858Z,101984.23
2019-05-16T04:42:41.376Z,101974.93
2019-05-16T04:45:11.498Z,101976.61
2019-05-16T04:47:41.085Z,101972.13
2019-05-16T04:50:07.422Z,101971.72
2019-05-16T04:52:35.289Z,101973.64
2019-05-16T04:55:03.083Z,101971.17
2019-05-16T04:57:31.475Z,101963.47
2019-05-16T05:00:02.349Z,101965.61
2019-05-16T05:02:30.936Z,101968.89
2019-05-16T05:05:01.251Z,101963.90
2019-05-16T05:07:30.970Z,101964.36
2019-05-16T05:10:00.263Z,101967.50
2019-05-16T05:12:27.193Z,101968.53
2019-05-16T05:14:54.990Z,101965.86
2019-05-16T05:17:22.800Z,101965.87
2019-05-16T05:19:50.870Z,101962.45
2019-05-16T05:22:19.894Z,101961.25
2019-05-16T05:24:47.949Z,101965.36
2019-05-16T05:27:16.284Z,101955.09
2019-05-16T05:29:44.205Z,101957.38
2019-05-16T05:32:14.306Z,101956.07
2019-05-16T05:34:41.659Z,101958.85
2019-05-16T05:37:12.487Z,101953.88
2019-05-16T05:39:39.675Z,101956.96
2019-05-16T05:42:10.123Z,101962.47
2019-05-16T05:44:37.442Z,101955.17
2019-05-16T05:47:05.238Z,101866.53
2019-05-16T05:49:33.082Z,101955.91
2019-05-16T05:52:00.978Z,101964.75
2019-05-16T05:54:30.879Z,101960.13
2019-05-16T05:57:00.514Z,101960.15
2019-05-16T05:59:30.448Z,101957.73
2019-05-16T06:02:00.881Z,101955.37
2019-05-16T06:04:30.366Z,101954.23
2019-05-16T06:06:57.607Z,101955.02
2019-05-16T06:09:29.364Z,101951.76
2019-05-16T06:11:54.990Z,101948.59
2019-05-16T06:14:22.787Z,101956.83
2019-05-16T06:16:50.910Z,101951.09
2019-05-16T06:19:20.374Z,101952.09
2019-05-16T06:21:50.348Z,101949.75
2019-05-16T06:24:19.995Z,101948.09
2019-05-16T06:26:47.542Z,101946.97
2019-05-16T06:29:15.682Z,101945.86
2019-05-16T06:31:43.576Z,101941.29
2019-05-16T06:34:15.197Z,101937.72
2019-05-16T06:36:41.406Z,101931.19
2019-05-16T06:39:11.434Z,101927.80
2019-05-16T06:41:39.776Z,101929.22
2019-05-16T06:44:07.701Z,101862.94
2019-05-16T06:46:44.293Z,101908.89
2019-05-16T06:49:05.141Z,101911.70
2019-05-16T06:51:34.201Z,101912.98
2019-05-16T06:54:02.169Z,101915.39
2019-05-16T06:56:31.706Z,101911.53
2019-05-16T06:59:00.860Z,101915.77
2019-05-16T07:01:29.794Z,101908.52
2019-05-16T07:03:59.983Z,101908.03
2019-05-16T07:06:50.271Z,101910.09
2019-05-16T07:08:57.028Z,101906.80
2019-05-16T07:11:24.896Z,101911.22
2019-05-16T07:13:52.861Z,101902.28
2019-05-16T07:16:20.750Z,101900.09
2019-05-16T07:18:50.619Z,101893.95
2019-05-16T07:21:20.251Z,101898.73
2019-05-16T07:23:47.999Z,101889.50
2019-05-16T07:26:15.807Z,101901.17
2019-05-16T07:28:43.691Z,101883.00
2019-05-16T07:31:17.852Z,101886.38
2019-05-16T07:33:40.968Z,101883.63
2019-05-16T07:36:09.888Z,101883.19
2019-05-16T07:38:40.426Z,101880.23
2019-05-16T07:41:11.107Z,101885.56
2019-05-16T07:43:40.097Z,101886.27
2019-05-16T07:46:07.645Z,101877.22
2019-05-16T07:48:35.604Z,101869.36
2019-05-16T07:51:03.412Z,101871.97
2019-05-16T07:53:33.134Z,101863.34
2019-05-16T07:56:00.706Z,101857.92
2019-05-16T07:58:31.063Z,101858.85
2019-05-16T08:01:07.349Z,101867.13
2019-05-16T08:03:30.347Z,101862.52
2019-05-16T08:05:57.764Z,101861.13
2019-05-16T08:08:25.652Z,101859.38
2019-05-16T08:10:53.507Z,101858.94
2019-05-16T08:13:22.018Z,101858.33
2019-05-16T08:15:51.071Z,101856.13
2019-05-16T08:18:21.282Z,101850.05
2019-05-16T08:23:21.859Z,101836.77
2019-05-16T08:25:50.689Z,101833.55
2019-05-16T08:28:20.545Z,101834.13
2019-05-16T08:30:47.445Z,101830.47
2019-05-16T08:33:15.312Z,101829.06
2019-05-16T08:35:43.160Z,101829.35
2019-05-16T08:38:13.602Z,101821.16
2019-05-16T08:41:01.140Z,101828.48
2019-05-16T08:43:11.806Z,101830.98
2019-05-16T08:45:41.745Z,101826.91
2019-05-16T08:48:11.544Z,101824.81
2019-05-16T08:50:42.075Z,101819.41
2019-05-16T08:53:12.954Z,101817.21
2019-05-16T08:58:13.641Z,101811.62
2019-05-16T09:00:42.118Z,101794.89
2019-05-16T09:03:12.467Z,101795.66
2019-05-16T09:05:42.959Z,101791.03
2019-05-16T09:08:09.881Z,101785.66
2019-05-16T09:10:31.317Z,101845.80
2019-05-16T09:10:57.986Z,101787.79
2019-05-16T09:13:07.327Z,101783.83
2019-05-16T09:15:38.761Z,101771.69
2019-05-16T09:18:07.319Z,101762.94
2019-05-16T09:20:37.277Z,101762.91
2019-05-16T09:23:03.746Z,101761.94
2019-05-16T09:25:31.760Z,101751.73
2019-05-16T09:28:23.164Z,101754.59
2019-05-16T09:30:50.070Z,101747.46
2019-05-16T09:33:18.028Z,101741.91
2019-05-16T09:35:47.753Z,101732.91
2019-05-16T09:38:20.308Z,101730.55
2019-05-16T09:40:47.830Z,101728.27
2019-05-16T09:43:17.751Z,101725.14
2019-05-16T09:45:47.303Z,101715.94
2019-05-16T09:48:18.441Z,101726.97
2019-05-16T09:50:46.723Z,101721.75
2019-05-16T09:53:17.032Z,101728.50
2019-05-16T09:55:43.954Z,101723.46
2019-05-16T09:58:12.476Z,101731.17
2019-05-16T10:00:40.287Z,101724.22
2019-05-16T10:03:09.541Z,101717.13
2019-05-16T10:05:37.420Z,101729.34
2019-05-16T10:09:06.316Z,101715.20
2019-05-16T10:11:33.072Z,101715.02
2019-05-16T10:14:01.230Z,101712.47
2019-05-16T10:16:28.971Z,101704.52
2019-05-16T10:18:56.929Z,101714.39
2019-05-16T10:21:26.978Z,101706.09
2019-05-16T10:23:56.343Z,101709.53
2019-05-16T10:26:27.474Z,101706.36
2019-05-16T10:29:00.624Z,101710.55
2019-05-16T10:31:41.354Z,101719.75
2019-05-16T10:33:58.624Z,101716.06
2019-05-16T10:36:28.185Z,101712.13
2019-05-16T10:38:59.030Z,101705.21
2019-05-16T10:41:25.833Z,101710.38
2019-05-16T10:43:53.788Z,101708.20
2019-05-16T10:46:21.728Z,101706.99
2019-05-16T10:48:49.597Z,101703.27
2019-05-16T10:51:17.385Z,101699.95
2019-05-16T10:54:02.402Z,101703.28
2019-05-16T10:56:14.818Z,101709.20
2019-05-16T10:58:59.627Z,101705.75
2019-05-16T11:01:24.285Z,101699.38
2019-05-16T11:03:41.747Z,101702.16
2019-05-16T11:06:23.471Z,101691.27
2019-05-16T11:08:40.759Z,101691.28
2019-05-16T11:20:37.187Z,101660.51
2019-05-16T11:23:07.706Z,101656.48
2019-05-16T11:26:03.629Z,101655.36
2019-05-16T11:28:36.812Z,101657.56
2019-05-16T11:31:07.716Z,101659.33
2019-05-16T11:33:47.561Z,101664.23
2019-05-16T11:36:16.727Z,101654.19
2019-05-16T11:41:56.941Z,101634.15
2019-05-16T11:44:28.112Z,101629.05
2019-05-16T11:46:57.455Z,101612.89
2019-05-16T11:49:24.173Z,101614.34
2019-05-16T11:52:01.525Z,101609.84
2019-05-16T11:54:29.310Z,101598.27
2019-05-16T11:56:57.191Z,101593.02
2019-05-16T11:59:25.100Z,101592.64
2019-05-16T12:01:57.931Z,101594.22
2019-05-16T12:04:28.111Z,101591.55
2019-05-16T12:06:57.441Z,101581.03
2019-05-16T12:09:32.111Z,101587.99
2019-05-16T12:11:59.628Z,101578.00
2019-05-16T12:14:24.627Z,101573.53
2019-05-16T12:16:56.908Z,101583.58
2019-05-16T12:19:23.971Z,101573.36
2019-05-16T12:21:52.467Z,101568.16
2019-05-16T12:24:33.229Z,101560.93
2019-05-16T12:26:51.094Z,101557.91
2019-05-16T12:29:20.032Z,101548.56
2019-05-16T12:31:57.750Z,101547.39
2019-05-16T12:34:19.670Z,101547.89
2019-05-16T12:36:48.022Z,101539.89
2019-05-16T12:39:17.214Z,101534.98
2019-05-16T12:45:08.116Z,101534.10
2019-05-16T12:47:37.551Z,101527.75
2019-05-16T12:50:07.231Z,101529.53
2019-05-16T12:52:38.302Z,101523.06
2019-05-16T12:55:16.611Z,101514.59
2019-05-16T12:57:48.948Z,101515.71
2019-05-16T13:01:38.577Z,101501.05
2019-05-16T13:03:12.295Z,101501.98
2019-05-16T13:06:17.482Z,101486.38
2019-05-16T13:09:06.972Z,101485.38
2019-05-16T13:11:37.526Z,101480.33
2019-05-16T13:14:08.073Z,101469.86
2019-05-16T13:16:34.135Z,101474.16
2019-05-16T13:19:07.804Z,101465.52
2019-05-16T13:21:38.049Z,101462.44
2019-05-16T13:24:06.880Z,101462.49
2019-05-16T13:29:27.525Z,101447.64
2019-05-16T13:31:57.078Z,101444.37
2019-05-16T13:34:28.105Z,101435.98
2019-05-16T13:36:57.401Z,101434.66
2019-05-16T13:39:24.388Z,101424.53
2019-05-16T13:42:21.661Z,101417.87
2019-05-16T13:45:10.578Z,101370.35
2019-05-16T13:47:44.472Z,101414.54
2019-05-16T13:50:30.580Z,101411.25
2019-05-16T13:53:00.472Z,101405.86
2019-05-16T13:55:28.339Z,101421.00
2019-05-16T13:57:56.090Z,101412.98
2019-05-16T14:00:23.966Z,101424.61
2019-05-16T14:05:58.031Z,101418.00
2019-05-16T14:08:23.696Z,101406.55
2019-05-16T14:10:51.587Z,101398.09
2019-05-16T14:13:20.237Z,101408.23
2019-05-16T14:15:48.063Z,101400.40
2019-05-16T14:18:17.712Z,101407.19
2019-05-16T14:20:46.620Z,101407.75
2019-05-16T14:23:16.969Z,101404.47
2019-05-16T14:25:47.708Z,101404.95
2019-05-16T14:28:16.991Z,101404.16
2019-05-16T14:30:43.694Z,101393.98
2019-05-16T14:33:13.904Z,101402.22
2019-05-16T14:35:41.270Z,101405.83
2019-05-16T14:38:27.117Z,101395.50
2019-05-16T14:40:57.120Z,101392.06
2019-05-16T14:43:27.022Z,101394.78
2019-05-16T14:45:53.967Z,101396.29
2019-05-16T14:48:21.693Z,101394.93
2019-05-16T14:51:17.906Z,101393.01
2019-05-16T14:53:47.188Z,101384.66
2019-05-16T14:56:17.986Z,101384.84
2019-05-16T14:58:48.582Z,101294.53
2019-05-16T15:01:17.458Z,101379.67
2019-05-16T15:03:47.104Z,101362.17
2019-05-16T15:06:17.991Z,101369.67
2019-05-16T15:08:43.939Z,101357.31
2019-05-16T15:11:14.491Z,101358.45
2019-05-16T15:13:41.303Z,101358.15
2019-05-16T15:16:09.028Z,101354.39
2019-05-16T15:18:38.479Z,101367.12
2019-05-16T15:21:08.393Z,101362.42
2019-05-16T15:23:35.907Z,101348.70
2019-05-16T15:26:21.313Z,101347.56
2019-05-16T15:28:51.118Z,101351.70
2019-05-16T15:31:18.537Z,101355.22
2019-05-16T15:33:47.586Z,101347.22
2019-05-16T15:36:27.044Z,101337.86
2019-05-16T15:38:59.531Z,101340.24
2019-05-16T15:41:30.308Z,101337.64
2019-05-16T15:44:22.895Z,101330.98
2019-05-16T15:46:42.680Z,101338.84
2019-05-16T15:49:11.247Z,101339.73
2019-05-16T15:51:43.584Z,101351.05
2019-05-16T15:54:13.268Z,101340.12
2019-05-16T15:56:46.731Z,101341.03
2019-05-16T15:59:27.214Z,101340.34
2019-05-16T16:01:58.465Z,101347.38
2019-05-16T16:04:48.721Z,101340.12
2019-05-16T16:07:29.974Z,101345.94
2019-05-16T16:10:00.414Z,101341.78
2019-05-16T16:12:37.251Z,101334.91
2019-05-16T16:15:03.670Z,101340.86
2019-05-16T16:17:43.839Z,101339.20
2019-05-16T16:20:17.047Z,101338.53
2019-05-16T16:23:01.749Z,101181.05
2019-05-16T16:25:51.721Z,101339.06
2019-05-16T16:28:52.748Z,101342.95
2019-05-16T16:31:33.279Z,101341.22
2019-05-16T16:34:08.729Z,101336.84
2019-05-16T16:39:37.983Z,101338.30
2019-05-16T16:42:07.637Z,101339.90
2019-05-16T16:44:36.543Z,101337.42
2019-05-16T16:47:17.667Z,101336.34
2019-05-16T16:52:59.888Z,101343.20
2019-05-16T16:55:49.757Z,101340.73
2019-05-16T16:58:46.569Z,101334.91
2019-05-16T17:01:37.916Z,101336.48
2019-05-16T17:07:30.218Z,101343.84
2019-05-16T17:10:10.037Z,101331.04
2019-05-16T17:13:08.292Z,101335.80
2019-05-16T17:15:44.061Z,101333.91
2019-05-16T17:18:20.238Z,101094.45
2019-05-16T17:21:27.693Z,101325.81
2019-05-16T17:24:18.217Z,101320.94
2019-05-16T17:30:03.298Z,101314.02
2019-05-16T17:33:28.264Z,101318.78
2019-05-16T17:36:13.261Z,101315.16
2019-05-16T17:38:57.778Z,101313.02
2019-05-16T17:41:55.081Z,101304.35
2019-05-16T17:48:29.045Z,101313.60
2019-05-16T17:52:36.819Z,101302.08
2019-05-16T17:54:59.993Z,101305.95
2019-05-16T17:57:51.056Z,101306.94
2019-05-16T18:00:33.550Z,101309.81
2019-05-16T18:03:26.466Z,101315.86
2019-05-16T18:09:37.598Z,101319.55
2019-05-16T18:12:22.345Z,101324.85
2019-05-16T18:17:48.672Z,101326.09
2019-05-16T18:20:32.937Z,101321.27
2019-05-16T18:23:16.451Z,101326.84
2019-05-16T18:26:10.043Z,101321.91
2019-05-16T18:29:06.828Z,101323.33
2019-05-16T18:31:43.709Z,101321.67
2019-05-16T18:37:13.477Z,101334.87
2019-05-16T18:42:57.119Z,101330.05
2019-05-16T18:45:40.308Z,101331.89
2019-05-16T18:48:18.423Z,101326.52
2019-05-16T18:51:43.550Z,101333.83
2019-05-16T18:54:19.089Z,101332.13
2019-05-16T18:56:54.776Z,101328.64
2019-05-16T18:59:53.497Z,101334.27
2019-05-16T19:02:23.625Z,101335.88
2019-05-16T19:05:02.998Z,101330.09
2019-05-16T19:08:04.295Z,101339.58
2019-05-16T19:11:00.093Z,101290.05
2019-05-16T19:13:31.246Z,101335.03
2019-05-16T19:16:26.228Z,101332.86
2019-05-16T19:19:07.215Z,101334.00
2019-05-16T19:21:38.529Z,101324.34
2019-05-16T19:24:23.144Z,101333.58
2019-05-16T19:27:17.127Z,101341.59
2019-05-16T19:30:00.085Z,101334.82
2019-05-16T19:32:40.184Z,101339.13
2019-05-16T19:35:07.980Z,101338.11
2019-05-16T19:37:40.478Z,101340.47
2019-05-16T19:40:33.199Z,101336.00
2019-05-16T19:43:08.375Z,101332.34
2019-05-16T19:45:46.431Z,101331.64
2019-05-16T19:51:22.516Z,101329.50
2019-05-16T19:53:57.513Z,101336.01
2019-05-16T19:56:37.376Z,101341.52
2019-05-16T19:59:14.142Z,101344.59
2019-05-16T20:02:03.752Z,101338.73
2019-05-16T20:05:44.380Z,101335.38
2019-05-16T20:08:06.391Z,101338.63
2019-05-16T20:10:50.391Z,101335.95
2019-05-16T20:13:38.880Z,101339.34
2019-05-16T20:16:37.935Z,101340.66
2019-05-16T20:19:13.807Z,101337.20
2019-05-16T20:21:47.627Z,101334.81
2019-05-16T20:24:17.337Z,101338.13
2019-05-16T20:30:02.821Z,101334.70
2019-05-16T20:32:48.662Z,101334.41
2019-05-16T20:35:41.183Z,101328.19
2019-05-16T20:38:18.954Z,101330.18
2019-05-16T20:40:59.859Z,101326.13
2019-05-16T20:43:59.549Z,101261.89
2019-05-16T20:46:49.455Z,101328.80
2019-05-16T20:49:37.229Z,101327.41
2019-05-16T20:52:27.633Z,101321.27
2019-05-16T20:55:10.078Z,101326.84
2019-05-16T20:57:46.384Z,101332.13
2019-05-16T21:00:19.930Z,101329.56
2019-05-16T21:03:02.810Z,101325.75
2019-05-16T21:05:58.457Z,101331.44
2019-05-16T21:11:30.737Z,101329.09
2019-05-16T21:14:00.282Z,101321.83
2019-05-16T21:16:30.609Z,101043.58
2019-05-16T21:19:06.971Z,101317.11
2019-05-16T21:21:37.846Z,101314.23
2019-05-16T21:24:22.203Z,101317.50
2019-05-16T21:27:07.609Z,101310.45
2019-05-16T21:29:56.550Z,101308.61
2019-05-16T21:32:31.620Z,101310.66
2019-05-16T21:35:02.822Z,101303.66
2019-05-16T21:37:57.636Z,101299.45
2019-05-16T21:40:32.626Z,101299.59
2019-05-16T21:43:11.391Z,101289.05
2019-05-16T21:45:49.675Z,101288.73
2019-05-16T21:48:20.818Z,101285.20
2019-05-16T21:51:29.123Z,101289.11
2019-05-16T21:53:52.635Z,101281.40
2019-05-16T21:56:20.439Z,101277.27
2019-05-16T21:58:48.457Z,101271.13
2019-05-16T22:01:22.276Z,101270.36
2019-05-16T22:03:56.741Z,101264.16
2019-05-16T22:09:43.421Z,101260.75
2019-05-16T22:12:13.019Z,101264.55
2019-05-16T22:15:02.142Z,101257.69
2019-05-16T22:17:30.370Z,101252.77
2019-05-16T22:20:03.943Z,101243.92
2019-05-16T22:22:41.180Z,101238.46
2019-05-16T22:25:16.839Z,101238.90
2019-05-16T22:27:48.458Z,101235.03
2019-05-16T22:30:18.105Z,101236.14
2019-05-16T22:33:34.287Z,101227.30
2019-05-16T22:35:21.847Z,101231.46
2019-05-16T22:38:19.105Z,101224.59
2019-05-16T22:40:56.187Z,101228.16
2019-05-16T22:43:27.902Z,101224.53
2019-05-16T22:45:59.208Z,101224.58
2019-05-16T22:48:28.184Z,100986.97
2019-05-16T22:54:07.706Z,101218.09
2019-05-16T22:56:37.524Z,101214.64
2019-05-16T22:59:07.251Z,101211.05
2019-05-16T23:05:11.986Z,101212.41
2019-05-16T23:07:39.788Z,101204.25
2019-05-16T23:10:07.624Z,101193.08
2019-05-16T23:12:37.219Z,101191.62
2019-05-16T23:15:06.607Z,101194.11
2019-05-16T23:17:38.788Z,101183.49
2019-05-16T23:20:08.858Z,101185.81
2019-05-16T23:26:02.174Z,101186.08
2019-05-16T23:28:30.139Z,101180.56
2019-05-16T23:30:58.335Z,101178.85
2019-05-16T23:33:26.916Z,101183.84
2019-05-16T23:35:57.493Z,101184.34
2019-05-16T23:38:30.765Z,101177.07
2019-05-16T23:40:58.714Z,101181.00
2019-05-16T23:43:26.657Z,101173.16
2019-05-16T23:45:56.384Z,101176.41
2019-05-16T23:48:24.205Z,101170.99
2019-05-16T23:50:52.444Z,101162.77
2019-05-16T23:53:20.409Z,101165.23
2019-05-16T23:55:48.306Z,101157.45
2019-05-16T23:58:16.253Z,101159.20
